Terminal Aerodrome Forecast
Issued by NWS

Home | Current Version | Previous Version | Text Only | Print | Product List | Glossary Off
Versions: 1 2 3 4 5 6 7 8 9 10 11 12 13 14 15 16 17 18 19 20

710
FTUS43 KMPX 170520
TAFRNH
TAF
KRNH 170520Z 1706/1806 14011G18KT P6SM SCT020 OVC140
     FM171400 15011KT 6SM -DZ BR OVC014
     FM171600 15008KT 3SM -DZ BR OVC006
     FM180100 34006KT 5SM -DZ BR OVC008=

USA.gov is the U.S. government's official web portal to all federal, state and local government web resources and services.